Barlow, Oregon
Current Conditions -  °F | °C
As of 1:53 AM on Friday 31 Oct 2014 (Local Time) from KUAO Reporting Station
Light Rain Light Rain  
Wind Chill: 55°   Ceiling: 7500
Heat Index: 55°   Visibility: 10mi
Dew Point: 55°   Wind: 0mph
Humidity: 100%   Direction: NA
Pressure: 29.73"   Gusts: NA
Location:  45.2216°N, 122.669°W
Report Text: KUAO 310853Z AUTO 00000KT 10SM -RA FEW009 OVC075 13/13 A2973 RMK AO2 RAE20B40 SLP068 P0001 60040 T01280128 58018
Loading
Personal Weather Stations






























Interactive Weather Map
Tropical Storm Tracking
New forecast layout! Learn more

10-Day Weather Forecast

Advertisements
Track Severe Weather on mobile